createdAt,value
2022-11-28T00:00:58.476Z,51.30
2022-11-28T00:03:35.596Z,49.40
2022-11-28T00:06:08.787Z,49.70
2022-11-28T00:08:41.256Z,47.70
2022-11-28T00:11:14.772Z,49.70
2022-11-28T00:13:47.773Z,50.40
2022-11-28T00:16:21.930Z,51.00
2022-11-28T00:18:55.584Z,50.80
2022-11-28T00:21:27.569Z,47.90
2022-11-28T00:23:59.866Z,50.10
2022-11-28T00:26:34.827Z,49.40
2022-11-28T00:29:11.462Z,47.00
2022-11-28T00:31:45.347Z,48.10
2022-11-28T00:34:18.171Z,50.50
2022-11-28T00:36:50.678Z,48.90
2022-11-28T00:39:23.007Z,52.00
2022-11-28T00:41:54.690Z,52.20
2022-11-28T00:44:26.748Z,53.20
2022-11-28T00:46:58.414Z,50.80
2022-11-28T00:49:30.164Z,51.20
2022-11-28T00:52:01.793Z,52.30
2022-11-28T00:54:33.524Z,54.60
2022-11-28T00:57:05.200Z,38.30
2022-11-28T00:59:36.835Z,52.10
2022-11-28T01:02:08.615Z,50.90
2022-11-28T01:04:40.979Z,50.90
2022-11-28T01:07:13.069Z,50.30
2022-11-28T01:09:45.385Z,48.50
2022-11-28T01:12:17.765Z,48.80
2022-11-28T01:14:49.994Z,52.10
2022-11-28T01:17:22.018Z,52.50
2022-11-28T01:19:54.479Z,38.40
2022-11-28T01:22:26.238Z,50.70
2022-11-28T01:24:57.957Z,32.00
2022-11-28T01:27:29.619Z,50.00
2022-11-28T01:30:01.285Z,49.90
2022-11-28T01:32:32.987Z,51.10
2022-11-28T01:35:05.267Z,50.60
2022-11-28T01:37:37.024Z,49.70
2022-11-28T01:40:12.197Z,50.60
2022-11-28T01:42:44.062Z,50.60
2022-11-28T01:45:23.569Z,51.80
2022-11-28T01:47:58.022Z,49.60
2022-11-28T01:50:31.366Z,47.50
2022-11-28T01:53:08.441Z,49.10
2022-11-28T01:55:44.301Z,46.10
2022-11-28T01:58:16.809Z,45.50
2022-11-28T02:00:49.625Z,47.20
2022-11-28T02:03:27.141Z,49.00
2022-11-28T02:05:59.604Z,46.00
2022-11-28T02:08:35.434Z,49.80
2022-11-28T02:11:34.115Z,48.10
2022-11-28T02:14:16.566Z,48.30
2022-11-28T02:17:02.159Z,47.50
2022-11-28T02:20:13.415Z,47.30
2022-11-28T02:22:54.383Z,44.50
2022-11-28T02:25:44.786Z,46.30
2022-11-28T02:28:35.137Z,45.50
2022-11-28T02:31:16.790Z,44.10
2022-11-28T02:33:53.900Z,44.10
2022-11-28T02:36:31.883Z,44.00
2022-11-28T02:39:12.499Z,45.90
2022-11-28T02:41:47.993Z,43.10
2022-11-28T02:44:24.346Z,43.30
2022-11-28T02:47:00.865Z,42.20
2022-11-28T02:49:38.378Z,41.50
2022-11-28T02:52:14.537Z,42.30
2022-11-28T02:54:47.998Z,40.60
2022-11-28T02:57:20.165Z,42.60
2022-11-28T02:59:52.861Z,40.00
2022-11-28T03:05:14.353Z,39.10
2022-11-28T03:08:07.128Z,42.10
2022-11-28T03:10:46.342Z,39.60
2022-11-28T03:13:24.747Z,41.30
2022-11-28T03:16:14.145Z,40.00
2022-11-28T03:18:55.273Z,41.20
2022-11-28T03:21:33.973Z,42.20
2022-11-28T03:24:13.503Z,41.80
2022-11-28T03:26:54.028Z,42.10
2022-11-28T03:29:32.802Z,44.10
2022-11-28T03:32:10.744Z,41.40
2022-11-28T03:34:47.075Z,42.30
2022-11-28T03:37:23.610Z,43.70
2022-11-28T03:40:01.578Z,41.30
2022-11-28T03:42:38.473Z,43.30
2022-11-28T03:45:15.014Z,43.80
2022-11-28T03:47:52.451Z,43.30
2022-11-28T03:50:30.376Z,41.90
2022-11-28T03:53:06.893Z,43.50
2022-11-28T03:55:44.814Z,42.80
2022-11-28T03:58:24.184Z,41.80
2022-11-28T04:01:04.761Z,41.90
2022-11-28T04:03:47.291Z,42.90
2022-11-28T04:06:24.077Z,41.60
2022-11-28T04:09:03.779Z,45.10
2022-11-28T04:11:40.666Z,43.80
2022-11-28T04:14:20.688Z,42.20
2022-11-28T04:16:59.355Z,42.20
2022-11-28T04:19:36.667Z,42.10
2022-11-28T04:22:15.838Z,41.90
2022-11-28T04:24:52.522Z,42.00
2022-11-28T04:27:28.979Z,41.70
2022-11-28T04:30:05.549Z,41.20
2022-11-28T04:32:42.162Z,38.40
2022-11-28T04:35:17.869Z,39.30
2022-11-28T04:37:53.224Z,40.50
2022-11-28T04:40:27.823Z,39.60
2022-11-28T04:43:03.459Z,39.40
2022-11-28T04:45:39.261Z,37.20
2022-11-28T04:48:11.356Z,36.90
2022-11-28T04:50:50.037Z,37.90
2022-11-28T04:53:29.225Z,37.40
2022-11-28T04:56:05.819Z,37.30
2022-11-28T04:58:41.443Z,37.10
2022-11-28T05:01:19.932Z,37.10
2022-11-28T05:03:51.989Z,36.80
2022-11-28T05:06:30.673Z,38.30
2022-11-28T05:09:03.143Z,38.00
2022-11-28T05:11:35.236Z,38.00
2022-11-28T05:14:07.746Z,36.00
2022-11-28T05:16:39.892Z,36.10
2022-11-28T05:19:11.621Z,39.50
2022-11-28T05:21:43.361Z,37.20
2022-11-28T05:24:15.593Z,38.80
2022-11-28T05:26:47.908Z,39.00
2022-11-28T05:29:19.699Z,36.50
2022-11-28T05:31:51.461Z,37.80
2022-11-28T05:34:23.185Z,38.50
2022-11-28T05:36:54.921Z,37.60
2022-11-28T05:39:27.001Z,37.30
2022-11-28T05:41:59.010Z,35.10
2022-11-28T05:44:33.653Z,36.90
2022-11-28T05:47:05.559Z,38.40
2022-11-28T05:49:37.742Z,27.30
2022-11-28T05:52:09.495Z,39.40
2022-11-28T05:54:41.207Z,35.90
2022-11-28T05:57:13.475Z,39.40
2022-11-28T05:59:45.649Z,36.30
2022-11-28T06:02:17.526Z,36.60
2022-11-28T06:04:49.785Z,33.30
2022-11-28T06:07:21.987Z,36.00
2022-11-28T06:09:54.046Z,35.00
2022-11-28T06:12:26.258Z,35.20
2022-11-28T06:14:59.164Z,34.90
2022-11-28T06:17:33.027Z,34.70
2022-11-28T06:20:05.395Z,34.60
2022-11-28T06:22:37.998Z,34.80
2022-11-28T06:25:10.054Z,36.60
2022-11-28T06:27:42.001Z,33.00
2022-11-28T06:30:14.837Z,32.90
2022-11-28T06:32:46.531Z,33.30
2022-11-28T06:35:18.582Z,35.50
2022-11-28T06:37:50.605Z,34.10
2022-11-28T06:40:25.763Z,35.80
2022-11-28T06:42:57.865Z,33.70
2022-11-28T06:45:29.808Z,34.20
2022-11-28T06:48:01.741Z,33.10
2022-11-28T06:50:35.088Z,36.30
2022-11-28T06:53:06.752Z,32.90
2022-11-28T06:55:38.592Z,33.40
2022-11-28T06:58:10.310Z,33.40
2022-11-28T07:00:42.143Z,32.80
2022-11-28T07:03:14.360Z,23.00
2022-11-28T07:05:46.618Z,32.10
2022-11-28T07:08:18.340Z,34.00
2022-11-28T07:10:50.098Z,32.90
2022-11-28T07:13:21.874Z,34.30
2022-11-28T07:15:56.588Z,32.30
2022-11-28T07:18:28.482Z,31.00
2022-11-28T07:21:00.837Z,23.70
2022-11-28T07:23:32.626Z,31.80
2022-11-28T07:26:06.574Z,22.90
2022-11-28T07:28:38.514Z,28.30
2022-11-28T07:31:12.316Z,22.40
2022-11-28T07:33:46.479Z,26.20
2022-11-28T07:36:20.508Z,27.40
2022-11-28T07:38:55.039Z,27.90
2022-11-28T07:41:27.371Z,26.30
2022-11-28T07:46:33.086Z,25.60
2022-11-28T07:49:05.302Z,27.30
2022-11-28T07:51:37.055Z,24.60
2022-11-28T07:54:09.569Z,27.70
2022-11-28T07:59:33.359Z,26.60
2022-11-28T08:02:05.181Z,27.20
2022-11-28T08:04:37.429Z,26.90
2022-11-28T08:07:09.288Z,26.30
2022-11-28T08:09:41.264Z,25.10
2022-11-28T08:12:13.127Z,27.40
2022-11-28T08:14:45.233Z,26.70
2022-11-28T08:17:17.369Z,25.90
2022-11-28T08:19:49.170Z,19.20
2022-11-28T08:22:20.998Z,25.40
2022-11-28T08:24:52.665Z,25.90
2022-11-28T08:27:24.414Z,26.70
2022-11-28T08:29:56.162Z,23.80
2022-11-28T08:32:29.676Z,25.20
2022-11-28T08:35:01.501Z,26.10
2022-11-28T08:37:33.161Z,25.30
2022-11-28T08:40:05.840Z,24.70
2022-11-28T08:45:11.727Z,22.90
2022-11-28T08:47:44.002Z,24.50
2022-11-28T08:50:15.683Z,25.00
2022-11-28T08:52:48.143Z,23.60
2022-11-28T08:55:25.084Z,25.00
2022-11-28T08:58:03.976Z,25.40
2022-11-28T09:00:35.896Z,24.10
2022-11-28T09:03:08.025Z,26.40
2022-11-28T09:05:39.765Z,25.20
2022-11-28T09:08:12.099Z,25.80
2022-11-28T09:10:45.309Z,25.50
2022-11-28T09:13:17.784Z,23.50
2022-11-28T09:15:52.615Z,25.00
2022-11-28T09:18:27.167Z,25.00
2022-11-28T09:21:04.603Z,24.30
2022-11-28T09:23:36.960Z,25.00
2022-11-28T09:26:12.439Z,29.50
2022-11-28T09:28:45.506Z,24.70
2022-11-28T09:31:19.734Z,26.60
2022-11-28T09:33:51.872Z,25.70
2022-11-28T09:36:25.585Z,27.40
2022-11-28T09:39:00.347Z,25.90
2022-11-28T09:41:51.709Z,28.80
2022-11-28T09:44:30.704Z,29.30
2022-11-28T09:47:06.960Z,28.10
2022-11-28T09:49:47.083Z,25.70
2022-11-28T09:52:29.999Z,27.20
2022-11-28T09:55:13.090Z,28.90
2022-11-28T09:57:48.010Z,27.90
2022-11-28T10:00:22.552Z,28.30
2022-11-28T10:03:11.081Z,27.50
2022-11-28T10:05:54.255Z,28.70
2022-11-28T10:08:38.823Z,28.10
2022-11-28T10:11:24.558Z,29.40
2022-11-28T10:14:08.447Z,28.20
2022-11-28T10:16:52.629Z,28.70
2022-11-28T10:19:53.339Z,29.90
2022-11-28T10:22:36.098Z,28.20
2022-11-28T10:25:17.548Z,29.10
2022-11-28T10:27:50.531Z,29.10
2022-11-28T10:30:26.143Z,27.30
2022-11-28T10:33:05.827Z,28.70
2022-11-28T10:35:44.014Z,27.50
2022-11-28T10:38:17.605Z,29.70
2022-11-28T10:40:57.158Z,29.00
2022-11-28T10:43:39.355Z,29.60
2022-11-28T10:46:31.295Z,28.50
2022-11-28T10:49:15.246Z,29.10
2022-11-28T10:52:01.611Z,29.90
2022-11-28T10:54:58.251Z,29.90
2022-11-28T10:57:40.755Z,27.80
2022-11-28T11:00:14.709Z,26.40
2022-11-28T11:02:49.271Z,29.30
2022-11-28T11:05:23.027Z,28.10
2022-11-28T11:07:57.233Z,30.80
2022-11-28T11:10:34.645Z,30.10
2022-11-28T11:13:17.038Z,30.00
2022-11-28T11:15:50.283Z,32.00
2022-11-28T11:18:27.445Z,29.70
2022-11-28T11:21:16.580Z,31.70
2022-11-28T11:23:50.243Z,29.40
2022-11-28T11:26:30.203Z,30.80
2022-11-28T11:29:02.285Z,28.40
2022-11-28T11:31:43.136Z,30.80
2022-11-28T11:34:19.013Z,31.40
2022-11-28T11:36:51.506Z,29.80
2022-11-28T11:39:25.498Z,30.40
2022-11-28T11:42:20.780Z,28.70
2022-11-28T11:44:55.319Z,27.50
2022-11-28T11:47:44.672Z,30.50
2022-11-28T11:50:20.442Z,28.80
2022-11-28T11:53:06.389Z,27.00
2022-11-28T11:55:47.445Z,27.90
2022-11-28T11:58:24.613Z,29.90
2022-11-28T12:01:00.896Z,28.30
2022-11-28T12:03:39.207Z,29.70
2022-11-28T12:06:17.193Z,29.20
2022-11-28T12:08:53.089Z,30.00
2022-11-28T12:11:29.189Z,29.20
2022-11-28T12:14:05.800Z,28.30
2022-11-28T12:16:49.599Z,30.50
2022-11-28T12:19:29.373Z,27.20
2022-11-28T12:22:12.134Z,26.80
2022-11-28T12:24:55.464Z,28.20
2022-11-28T12:27:41.541Z,29.70
2022-11-28T12:30:26.189Z,29.30
2022-11-28T12:33:12.579Z,30.20
2022-11-28T12:35:48.150Z,29.50
2022-11-28T12:38:32.478Z,31.20
2022-11-28T12:41:32.033Z,29.10
2022-11-28T12:44:14.593Z,30.90
2022-11-28T12:46:53.912Z,27.00
2022-11-28T12:49:36.870Z,27.80
2022-11-28T12:55:05.037Z,27.80
2022-11-28T12:57:43.783Z,28.30
2022-11-28T13:00:20.998Z,30.40
2022-11-28T13:03:06.920Z,30.40
2022-11-28T13:05:49.033Z,29.70
2022-11-28T13:08:34.825Z,32.50
2022-11-28T13:11:20.358Z,29.20
2022-11-28T13:13:59.744Z,29.60
2022-11-28T13:16:42.343Z,30.80
2022-11-28T13:19:24.927Z,29.40
2022-11-28T13:22:03.487Z,31.00
2022-11-28T13:24:43.841Z,31.00
2022-11-28T13:27:22.733Z,32.10
2022-11-28T13:30:10.095Z,29.10
2022-11-28T13:32:52.168Z,29.90
2022-11-28T13:35:26.097Z,30.20
2022-11-28T13:41:05.003Z,28.60
2022-11-28T13:43:47.999Z,31.10
2022-11-28T13:46:20.424Z,30.30
2022-11-28T13:49:14.418Z,32.30
2022-11-28T13:51:47.781Z,28.90
2022-11-28T13:54:48.262Z,27.90
2022-11-28T13:57:26.895Z,28.00
2022-11-28T14:00:04.625Z,27.80
2022-11-28T14:02:50.880Z,27.40
2022-11-28T14:05:36.329Z,26.10
2022-11-28T14:08:09.059Z,26.00
2022-11-28T14:11:27.236Z,26.40
2022-11-28T14:14:15.343Z,26.80
2022-11-28T14:17:02.673Z,26.00
2022-11-28T14:19:53.936Z,25.80
2022-11-28T14:22:42.410Z,26.80
2022-11-28T14:25:21.293Z,26.40
2022-11-28T14:27:58.137Z,27.80
2022-11-28T14:30:35.193Z,28.10
2022-11-28T14:33:16.961Z,28.90
2022-11-28T14:36:34.769Z,27.00
2022-11-28T14:39:13.582Z,27.10
2022-11-28T14:42:58.376Z,27.60
2022-11-28T14:45:42.195Z,24.60
2022-11-28T14:48:32.211Z,28.60
2022-11-28T14:51:04.140Z,26.60
2022-11-28T14:53:48.022Z,26.50
2022-11-28T14:56:27.515Z,27.90
2022-11-28T14:59:03.633Z,27.60
2022-11-28T15:01:53.166Z,27.30
2022-11-28T15:04:52.288Z,28.60
2022-11-28T15:07:46.186Z,27.70
2022-11-28T15:10:25.011Z,29.80
2022-11-28T15:13:08.725Z,30.70
2022-11-28T15:15:49.890Z,30.90
2022-11-28T15:18:24.675Z,30.00
2022-11-28T15:21:02.154Z,30.50
2022-11-28T15:23:38.465Z,28.90
2022-11-28T15:26:21.611Z,28.40
2022-11-28T15:29:12.190Z,30.00
2022-11-28T15:31:44.709Z,32.80
2022-11-28T15:34:26.870Z,32.60
2022-11-28T15:37:01.481Z,23.20
2022-11-28T15:39:42.267Z,32.70
2022-11-28T15:42:23.858Z,30.50
2022-11-28T15:44:59.268Z,32.00
2022-11-28T15:47:31.130Z,31.80
2022-11-28T15:50:14.557Z,31.60
2022-11-28T15:52:58.336Z,31.30
2022-11-28T15:55:35.067Z,31.00
2022-11-28T15:58:19.447Z,31.80
2022-11-28T16:00:55.775Z,32.40
2022-11-28T16:03:32.100Z,32.20
2022-11-28T16:06:06.871Z,34.00
2022-11-28T16:08:42.285Z,33.70
2022-11-28T16:11:20.072Z,32.80
2022-11-28T16:13:53.230Z,34.40
2022-11-28T16:16:29.192Z,35.20
2022-11-28T16:19:06.983Z,34.70
2022-11-28T16:21:44.710Z,37.40
2022-11-28T16:24:27.592Z,34.80
2022-11-28T16:29:35.150Z,35.00
2022-11-28T16:32:22.949Z,36.10
2022-11-28T16:34:57.213Z,35.80
2022-11-28T16:37:31.049Z,36.70
2022-11-28T16:40:06.763Z,37.00
2022-11-28T16:42:38.597Z,38.70
2022-11-28T16:45:30.787Z,38.20
2022-11-28T16:48:11.543Z,37.60
2022-11-28T16:51:14.376Z,36.00
2022-11-28T16:53:47.887Z,23.30
2022-11-28T16:56:43.456Z,35.80
2022-11-28T16:59:17.437Z,34.70
2022-11-28T17:01:53.135Z,34.70
2022-11-28T17:04:26.821Z,34.50
2022-11-28T17:07:05.290Z,35.00
2022-11-28T17:09:37.465Z,33.50
2022-11-28T17:12:15.857Z,35.30
2022-11-28T17:14:48.219Z,35.80
2022-11-28T17:17:23.260Z,33.00
2022-11-28T17:19:55.210Z,32.30
2022-11-28T17:22:34.865Z,33.50
2022-11-28T17:25:17.518Z,35.10
2022-11-28T17:27:49.683Z,34.10
2022-11-28T17:30:23.177Z,33.00
2022-11-28T17:32:56.720Z,34.20
2022-11-28T17:35:42.258Z,34.80
2022-11-28T17:38:27.281Z,36.50
2022-11-28T17:41:11.346Z,36.20
2022-11-28T17:43:50.137Z,33.20
2022-11-28T17:46:25.343Z,34.70
2022-11-28T17:49:04.605Z,33.80
2022-11-28T17:51:39.141Z,33.40
2022-11-28T17:54:16.494Z,33.90
2022-11-28T17:56:53.908Z,36.40
2022-11-28T17:59:38.245Z,36.40
2022-11-28T18:02:17.460Z,34.70
2022-11-28T18:04:56.221Z,32.50
2022-11-28T18:07:31.144Z,33.80
2022-11-28T18:10:04.723Z,33.80
2022-11-28T18:12:38.625Z,33.50
2022-11-28T18:15:16.301Z,33.30
2022-11-28T18:17:49.938Z,32.30
2022-11-28T18:20:23.788Z,33.80
2022-11-28T18:22:57.918Z,33.30
2022-11-28T18:25:33.750Z,32.20
2022-11-28T18:28:12.208Z,31.40
2022-11-28T18:30:49.765Z,32.10
2022-11-28T18:33:22.466Z,33.10
2022-11-28T18:35:58.322Z,31.20
2022-11-28T18:38:37.326Z,32.30
2022-11-28T18:41:19.249Z,29.60
2022-11-28T18:44:07.117Z,33.00
2022-11-28T18:46:54.174Z,30.90
2022-11-28T18:49:31.173Z,30.50
2022-11-28T18:52:05.405Z,31.30
2022-11-28T18:54:43.687Z,31.80
2022-11-28T18:57:25.501Z,29.70
2022-11-28T19:00:05.717Z,30.20
2022-11-28T19:02:40.962Z,29.30
2022-11-28T19:05:14.515Z,31.10
2022-11-28T19:07:46.958Z,29.30
2022-11-28T19:10:20.260Z,28.50
2022-11-28T19:12:52.316Z,30.40
2022-11-28T19:15:24.374Z,28.20
2022-11-28T19:17:56.669Z,28.20
2022-11-28T19:20:29.194Z,29.10
2022-11-28T19:23:01.323Z,29.40
2022-11-28T19:25:33.284Z,30.20
2022-11-28T19:28:05.273Z,22.30
2022-11-28T19:30:37.191Z,29.30
2022-11-28T19:33:09.003Z,29.20
2022-11-28T19:35:43.733Z,30.50
2022-11-28T19:38:15.643Z,30.20
2022-11-28T19:40:47.498Z,28.90
2022-11-28T19:43:19.251Z,29.70
2022-11-28T19:45:57.837Z,28.60
2022-11-28T19:48:31.234Z,28.80
2022-11-28T19:51:04.110Z,32.40
2022-11-28T19:53:38.591Z,30.20
2022-11-28T19:56:15.516Z,30.80
2022-11-28T19:58:48.129Z,31.10
2022-11-28T20:01:21.172Z,31.00
2022-11-28T20:03:56.676Z,29.80
2022-11-28T20:06:30.902Z,30.30
2022-11-28T20:09:05.653Z,30.30
2022-11-28T20:11:39.302Z,32.90
2022-11-28T20:14:14.838Z,28.20
2022-11-28T20:16:47.229Z,30.70
2022-11-28T20:19:20.295Z,31.50
2022-11-28T20:21:58.464Z,29.80
2022-11-28T20:24:30.755Z,30.60
2022-11-28T20:27:02.589Z,28.70
2022-11-28T20:29:34.335Z,30.00
2022-11-28T20:32:06.600Z,31.20
2022-11-28T20:34:38.305Z,30.10
2022-11-28T20:37:09.936Z,30.00
2022-11-28T20:39:41.941Z,29.30
2022-11-28T20:42:13.944Z,30.30
2022-11-28T20:44:45.757Z,30.60
2022-11-28T20:47:17.514Z,32.00
2022-11-28T20:49:49.583Z,31.20
2022-11-28T20:52:21.366Z,31.00
2022-11-28T20:54:53.136Z,31.40
2022-11-28T20:57:25.195Z,30.70
2022-11-28T20:59:57.501Z,30.60
2022-11-28T21:02:29.345Z,30.50
2022-11-28T21:05:01.589Z,30.30
2022-11-28T21:07:33.411Z,23.00
2022-11-28T21:10:05.623Z,31.00
2022-11-28T21:12:37.360Z,31.70
2022-11-28T21:15:10.876Z,32.20
2022-11-28T21:17:42.685Z,33.40
2022-11-28T21:20:15.265Z,30.50
2022-11-28T21:22:47.040Z,33.00
2022-11-28T21:25:19.313Z,31.30
2022-11-28T21:27:50.937Z,30.90
2022-11-28T21:30:23.517Z,31.80
2022-11-28T21:32:55.321Z,30.20
2022-11-28T21:35:27.342Z,22.30
2022-11-28T21:37:58.906Z,29.90
2022-11-28T21:40:31.175Z,31.00
2022-11-28T21:43:02.954Z,30.30
2022-11-28T21:45:36.475Z,29.70
2022-11-28T21:48:09.122Z,28.60
2022-11-28T21:50:48.727Z,30.50
2022-11-28T21:53:22.194Z,28.50
2022-11-28T21:55:55.220Z,28.80
2022-11-28T21:58:28.458Z,30.40
2022-11-28T22:01:04.158Z,29.70
2022-11-28T22:03:37.404Z,28.90
2022-11-28T22:06:15.799Z,29.10
2022-11-28T22:08:50.004Z,30.10
2022-11-28T22:11:24.288Z,28.60
2022-11-28T22:13:56.981Z,28.60
2022-11-28T22:16:30.341Z,28.10
2022-11-28T22:19:04.105Z,28.70
2022-11-28T22:21:56.483Z,27.90
2022-11-28T22:24:29.428Z,25.50
2022-11-28T22:27:01.239Z,29.10
2022-11-28T22:29:33.055Z,21.40
2022-11-28T22:32:05.057Z,28.20
2022-11-28T22:37:12.736Z,27.30
2022-11-28T22:39:44.596Z,26.90
2022-11-28T22:42:16.435Z,27.50
2022-11-28T22:44:49.638Z,27.40
2022-11-28T22:47:21.446Z,27.60
2022-11-28T22:49:53.071Z,27.50
2022-11-28T22:52:25.554Z,22.80
2022-11-28T22:54:57.512Z,25.50
2022-11-28T22:57:29.372Z,27.60
2022-11-28T23:00:01.730Z,26.60
2022-11-28T23:02:33.583Z,26.90
2022-11-28T23:05:06.339Z,25.10
2022-11-28T23:07:38.408Z,26.90
2022-11-28T23:10:12.070Z,25.50
2022-11-28T23:15:13.917Z,26.30
2022-11-28T23:17:46.221Z,25.90
2022-11-28T23:20:18.237Z,17.50
2022-11-28T23:22:50.329Z,24.40
2022-11-28T23:25:22.262Z,25.60
2022-11-28T23:27:54.250Z,26.80
2022-11-28T23:30:26.384Z,27.00
2022-11-28T23:32:58.074Z,25.70
2022-11-28T23:35:30.597Z,26.40
2022-11-28T23:38:02.248Z,26.80
2022-11-28T23:40:34.106Z,24.80
2022-11-28T23:43:05.806Z,24.70
2022-11-28T23:45:37.732Z,26.30
2022-11-28T23:48:09.764Z,17.40
2022-11-28T23:50:41.482Z,23.70
2022-11-28T23:53:13.913Z,24.50
2022-11-28T23:55:46.220Z,25.10
2022-11-28T23:58:18.210Z,23.50
